Dudley, United Kingdom
Current Conditions -  °F | °C
As of 5:50 AM on Thursday 18 Dec 2014 (Local Time) from EGBB Reporting Station
Overcast Overcast  
Wind Chill: 54°   Ceiling: 1100
Heat Index: 54°   Visibility: 6mi
Dew Point: 50°   Wind: 12mph
Humidity: 88%   Direction: 240°WSW
Pressure: 29.71"   Gusts: 23mph
Location:  52.51°N, 2.09°W
Report Text: EGBB 180550Z AUTO 24010G20KT 200V270 9999 BKN011/// OVC015/// 12/10 Q1006
Loading
Personal Weather Stations






























Interactive Weather Map New forecast layout! Learn more

10-Day Weather Forecast

Advertisements
Track Severe Weather on mobile